sensor_id;sensor_type;location;lat;lon;timestamp;pressure;altitude;pressure_sealevel;temperature;humidity
66857;BME280;53766;50.280;19.160;2023-06-04T00:01:00;98883.09;;;18.67;34.43
66857;BME280;53766;50.280;19.160;2023-06-04T00:03:47;98869.75;;;18.67;34.35
66857;BME280;53766;50.280;19.160;2023-06-04T00:06:15;98870.56;;;18.67;34.47
66857;BME280;53766;50.280;19.160;2023-06-04T00:08:43;98868.06;;;18.66;34.34
66857;BME280;53766;50.280;19.160;2023-06-04T00:11:10;98863.59;;;18.66;34.31
66857;BME280;53766;50.280;19.160;2023-06-04T00:13:38;98863.59;;;18.66;34.24
66857;BME280;53766;50.280;19.160;2023-06-04T00:16:05;98851.06;;;18.67;34.18
66857;BME280;53766;50.280;19.160;2023-06-04T00:18:33;98842.25;;;18.66;34.27
66857;BME280;53766;50.280;19.160;2023-06-04T00:21:00;98845.91;;;18.65;34.32
66857;BME280;53766;50.280;19.160;2023-06-04T00:23:28;98848.59;;;18.65;34.28
66857;BME280;53766;50.280;19.160;2023-06-04T00:25:55;98847.78;;;18.65;34.32
66857;BME280;53766;50.280;19.160;2023-06-04T00:28:23;98838.09;;;18.64;34.19
66857;BME280;53766;50.280;19.160;2023-06-04T00:30:50;98838.09;;;18.64;34.32
66857;BME280;53766;50.280;19.160;2023-06-04T00:33:18;98838.09;;;18.64;34.30
66857;BME280;53766;50.280;19.160;2023-06-04T00:35:46;98836.47;;;18.63;34.28
66857;BME280;53766;50.280;19.160;2023-06-04T00:38:13;98842.63;;;18.63;34.20
66857;BME280;53766;50.280;19.160;2023-06-04T00:40:41;98846.09;;;18.64;34.30
66857;BME280;53766;50.280;19.160;2023-06-04T00:43:09;98847.13;;;18.63;34.39
66857;BME280;53766;50.280;19.160;2023-06-04T00:45:36;98841.81;;;18.63;34.25
66857;BME280;53766;50.280;19.160;2023-06-04T00:48:04;98840.97;;;18.62;34.34
66857;BME280;53766;50.280;19.160;2023-06-04T00:50:33;98845.50;;;18.62;34.25
66857;BME280;53766;50.280;19.160;2023-06-04T00:53:02;98840.16;;;18.62;34.19
66857;BME280;53766;50.280;19.160;2023-06-04T00:55:30;98837.50;;;18.62;34.31
66857;BME280;53766;50.280;19.160;2023-06-04T00:57:58;98844.66;;;18.61;34.34
66857;BME280;53766;50.280;19.160;2023-06-04T01:00:28;98830.50;;;18.61;34.41
66857;BME280;53766;50.280;19.160;2023-06-04T01:02:57;98839.31;;;18.61;34.28
66857;BME280;53766;50.280;19.160;2023-06-04T01:05:40;98826.19;;;18.60;34.37
66857;BME280;53766;50.280;19.160;2023-06-04T01:08:10;98830.69;;;18.59;34.27
66857;BME280;53766;50.280;19.160;2023-06-04T01:10:50;98825.34;;;18.59;34.40
66857;BME280;53766;50.280;19.160;2023-06-04T01:13:18;98829.88;;;18.59;34.40
66857;BME280;53766;50.280;19.160;2023-06-04T01:15:46;98817.56;;;18.58;34.32
66857;BME280;53766;50.280;19.160;2023-06-04T01:18:17;98822.06;;;18.57;34.28
66857;BME280;53766;50.280;19.160;2023-06-04T01:20:59;98826.56;;;18.57;34.45
66857;BME280;53766;50.280;19.160;2023-06-04T01:23:49;98823.09;;;18.56;34.39
66857;BME280;53766;50.280;19.160;2023-06-04T01:26:27;98823.91;;;18.57;34.47
66857;BME280;53766;50.280;19.160;2023-06-04T01:28:56;98826.56;;;18.57;34.33
66857;BME280;53766;50.280;19.160;2023-06-04T01:31:25;98824.94;;;18.56;34.39
66857;BME280;53766;50.280;19.160;2023-06-04T01:33:53;98826.75;;;18.55;34.25
66857;BME280;53766;50.280;19.160;2023-06-04T01:36:21;98821.63;;;18.54;34.31
66857;BME280;53766;50.280;19.160;2023-06-04T01:38:50;98825.13;;;18.54;34.54
66857;BME280;53766;50.280;19.160;2023-06-04T01:41:18;98826.16;;;18.53;34.36
66857;BME280;53766;50.280;19.160;2023-06-04T01:43:46;98827.97;;;18.53;34.43
66857;BME280;53766;50.280;19.160;2023-06-04T01:46:13;98823.69;;;18.52;34.52
66857;BME280;53766;50.280;19.160;2023-06-04T01:48:41;98825.31;;;18.53;34.49
66857;BME280;53766;50.280;19.160;2023-06-04T01:51:08;98824.50;;;18.52;34.41
66857;BME280;53766;50.280;19.160;2023-06-04T01:53:36;98822.00;;;18.50;34.43
66857;BME280;53766;50.280;19.160;2023-06-04T01:56:04;98823.69;;;18.52;34.52
66857;BME280;53766;50.280;19.160;2023-06-04T01:58:31;98822.00;;;18.50;34.49
66857;BME280;53766;50.280;19.160;2023-06-04T02:00:59;98816.69;;;18.50;34.35
66857;BME280;53766;50.280;19.160;2023-06-04T02:03:30;98819.34;;;18.50;34.50
66857;BME280;53766;50.280;19.160;2023-06-04T02:06:04;98820.38;;;18.49;34.46
66857;BME280;53766;50.280;19.160;2023-06-04T02:08:35;98815.88;;;18.50;34.43
66857;BME280;53766;50.280;19.160;2023-06-04T02:11:03;98821.19;;;18.50;34.52
66857;BME280;53766;50.280;19.160;2023-06-04T02:13:30;98814.22;;;18.49;34.39
66857;BME280;53766;50.280;19.160;2023-06-04T02:15:59;98824.06;;;18.48;34.52
66857;BME280;53766;50.280;19.160;2023-06-04T02:18:26;98822.22;;;18.49;34.28
66857;BME280;53766;50.280;19.160;2023-06-04T02:20:56;98821.19;;;18.50;34.56
66857;BME280;53766;50.280;19.160;2023-06-04T02:23:23;98821.38;;;18.48;34.37
66857;BME280;53766;50.280;19.160;2023-06-04T02:25:51;98821.38;;;18.48;34.43
66857;BME280;53766;50.280;19.160;2023-06-04T02:28:20;98820.75;;;18.46;34.53
66857;BME280;53766;50.280;19.160;2023-06-04T02:30:48;98823.41;;;18.46;34.43
66857;BME280;53766;50.280;19.160;2023-06-04T02:33:15;98823.41;;;18.46;34.58
66857;BME280;53766;50.280;19.160;2023-06-04T02:35:43;98820.75;;;18.46;34.51
66857;BME280;53766;50.280;19.160;2023-06-04T02:38:10;98820.75;;;18.46;34.61
66857;BME280;53766;50.280;19.160;2023-06-04T02:40:39;98831.41;;;18.46;34.47
66857;BME280;53766;50.280;19.160;2023-06-04T02:43:06;98826.09;;;18.46;34.43
66857;BME280;53766;50.280;19.160;2023-06-04T02:45:35;98821.78;;;18.45;34.56
66857;BME280;53766;50.280;19.160;2023-06-04T02:48:02;98827.13;;;18.45;34.55
66857;BME280;53766;50.280;19.160;2023-06-04T02:50:30;98825.28;;;18.46;34.48
66857;BME280;53766;50.280;19.160;2023-06-04T02:52:57;98830.59;;;18.46;34.55
66857;BME280;53766;50.280;19.160;2023-06-04T02:55:25;98824.44;;;18.45;34.44
66857;BME280;53766;50.280;19.160;2023-06-04T02:57:53;98819.94;;;18.46;34.63
66857;BME280;53766;50.280;19.160;2023-06-04T03:00:20;98824.44;;;18.45;34.60
66857;BME280;53766;50.280;19.160;2023-06-04T03:02:48;98813.78;;;18.45;34.49
66857;BME280;53766;50.280;19.160;2023-06-04T03:05:16;98819.13;;;18.45;34.57
66857;BME280;53766;50.280;19.160;2023-06-04T03:07:46;98813.78;;;18.45;34.46
66857;BME280;53766;50.280;19.160;2023-06-04T03:10:17;98819.13;;;18.45;34.66
66857;BME280;53766;50.280;19.160;2023-06-04T03:12:44;98819.13;;;18.45;34.58
66857;BME280;53766;50.280;19.160;2023-06-04T03:15:12;98825.47;;;18.44;34.62
66857;BME280;53766;50.280;19.160;2023-06-04T03:17:40;98825.47;;;18.44;34.47
66857;BME280;53766;50.280;19.160;2023-06-04T03:20:08;98828.16;;;18.44;34.72
66857;BME280;53766;50.280;19.160;2023-06-04T03:22:36;98825.47;;;18.44;34.66
66857;BME280;53766;50.280;19.160;2023-06-04T03:25:04;98821.97;;;18.44;34.69
66857;BME280;53766;50.280;19.160;2023-06-04T03:27:32;98827.31;;;18.44;34.60
66857;BME280;53766;50.280;19.160;2023-06-04T03:30:01;98823.63;;;18.45;34.54
66857;BME280;53766;50.280;19.160;2023-06-04T03:32:29;98825.28;;;18.46;34.52
66857;BME280;53766;50.280;19.160;2023-06-04T03:34:56;98822.41;;;18.47;34.62
66857;BME280;53766;50.280;19.160;2023-06-04T03:37:24;98827.75;;;18.47;34.54
66857;BME280;53766;50.280;19.160;2023-06-04T03:39:53;98829.38;;;18.48;34.56
66857;BME280;53766;50.280;19.160;2023-06-04T03:42:20;98831.88;;;18.50;34.56
66857;BME280;53766;50.280;19.160;2023-06-04T03:44:48;98836.38;;;18.49;34.53
66857;BME280;53766;50.280;19.160;2023-06-04T03:47:16;98832.69;;;18.50;34.60
66857;BME280;53766;50.280;19.160;2023-06-04T03:49:44;98833.31;;;18.53;34.57
66857;BME280;53766;50.280;19.160;2023-06-04T03:52:11;98830.66;;;18.53;34.62
66857;BME280;53766;50.280;19.160;2023-06-04T03:54:39;98842.97;;;18.54;34.59
66857;BME280;53766;50.280;19.160;2023-06-04T03:57:07;98829.63;;;18.54;34.74
66857;BME280;53766;50.280;19.160;2023-06-04T03:59:34;98832.31;;;18.54;34.53
66857;BME280;53766;50.280;19.160;2023-06-04T04:02:02;98836.59;;;18.55;34.58
66857;BME280;53766;50.280;19.160;2023-06-04T04:04:29;98840.09;;;18.55;34.43
66857;BME280;53766;50.280;19.160;2023-06-04T04:06:57;98841.75;;;18.56;34.61
66857;BME280;53766;50.280;19.160;2023-06-04T04:09:25;98844.25;;;18.58;34.57
66857;BME280;53766;50.280;19.160;2023-06-04T04:11:52;98842.56;;;18.57;34.59
66857;BME280;53766;50.280;19.160;2023-06-04T04:14:20;98843.22;;;18.59;34.58
66857;BME280;53766;50.280;19.160;2023-06-04T04:16:47;98840.53;;;18.59;34.51
66857;BME280;53766;50.280;19.160;2023-06-04T04:19:15;98840.53;;;18.59;34.34
66857;BME280;53766;50.280;19.160;2023-06-04T04:21:43;98842.19;;;18.60;34.47
66857;BME280;53766;50.280;19.160;2023-06-04T04:24:22;98839.53;;;18.60;34.53
66857;BME280;53766;50.280;19.160;2023-06-04T04:26:49;98837.69;;;18.60;34.54
66857;BME280;53766;50.280;19.160;2023-06-04T04:29:24;98840.16;;;18.62;34.48
66857;BME280;53766;50.280;19.160;2023-06-04T04:31:54;98839.31;;;18.61;34.53
66857;BME280;53766;50.280;19.160;2023-06-04T04:34:26;98841.81;;;18.63;34.58
66857;BME280;53766;50.280;19.160;2023-06-04T04:36:54;98836.47;;;18.63;34.39
66857;BME280;53766;50.280;19.160;2023-06-04T04:39:24;98838.09;;;18.64;34.52
66857;BME280;53766;50.280;19.160;2023-06-04T04:41:52;98839.75;;;18.65;34.49
66857;BME280;53766;50.280;19.160;2023-06-04T04:44:19;98839.75;;;18.65;34.43
66857;BME280;53766;50.280;19.160;2023-06-04T04:46:50;98845.72;;;18.67;34.50
66857;BME280;53766;50.280;19.160;2023-06-04T04:49:18;98849.22;;;18.67;34.49
66857;BME280;53766;50.280;19.160;2023-06-04T04:51:46;98855.19;;;18.69;34.38
66857;BME280;53766;50.280;19.160;2023-06-04T04:54:13;98850.66;;;18.70;34.60
66857;BME280;53766;50.280;19.160;2023-06-04T04:56:41;98848.00;;;18.70;34.52
66857;BME280;53766;50.280;19.160;2023-06-04T04:59:08;98855.81;;;18.71;34.58
66857;BME280;53766;50.280;19.160;2023-06-04T05:01:36;98848.63;;;18.72;34.45
66857;BME280;53766;50.280;19.160;2023-06-04T05:04:03;98859.94;;;18.74;34.45
66857;BME280;53766;50.280;19.160;2023-06-04T05:06:34;98856.25;;;18.75;34.60
66857;BME280;53766;50.280;19.160;2023-06-04T05:09:02;98852.56;;;18.76;34.67
66857;BME280;53766;50.280;19.160;2023-06-04T05:11:29;98851.53;;;18.77;34.56
66857;BME280;53766;50.280;19.160;2023-06-04T05:13:57;98853.84;;;18.80;34.51
66857;BME280;53766;50.280;19.160;2023-06-04T05:16:24;98857.31;;;18.81;34.73
66857;BME280;53766;50.280;19.160;2023-06-04T05:18:56;98864.97;;;18.84;34.69
66857;BME280;53766;50.280;19.160;2023-06-04T05:21:24;98861.69;;;18.88;34.66
66857;BME280;53766;50.280;19.160;2023-06-04T05:23:52;98868.06;;;18.94;34.75
66857;BME280;53766;50.280;19.160;2023-06-04T05:26:20;98856.81;;;18.99;34.41
66857;BME280;53766;50.280;19.160;2023-06-04T05:28:50;98858.91;;;19.03;34.37
66857;BME280;53766;50.280;19.160;2023-06-04T05:31:18;98860.97;;;19.08;34.37
66857;BME280;53766;50.280;19.160;2023-06-04T05:33:45;98860.56;;;19.11;34.40
66857;BME280;53766;50.280;19.160;2023-06-04T05:36:15;98867.56;;;19.12;34.36
66857;BME280;53766;50.280;19.160;2023-06-04T05:38:42;98866.53;;;19.13;34.16
66857;BME280;53766;50.280;19.160;2023-06-04T05:41:10;98861.19;;;19.13;34.39
66857;BME280;53766;50.280;19.160;2023-06-04T05:43:38;98863.69;;;19.15;34.57
66857;BME280;53766;50.280;19.160;2023-06-04T05:46:06;98859.56;;;19.12;34.36
66857;BME280;53766;50.280;19.160;2023-06-04T05:48:35;98867.56;;;19.12;34.54
66857;BME280;53766;50.280;19.160;2023-06-04T05:51:02;98869.63;;;19.10;34.47
66857;BME280;53766;50.280;19.160;2023-06-04T05:53:33;98871.44;;;19.09;34.37
66857;BME280;53766;50.280;19.160;2023-06-04T05:56:00;98867.13;;;19.08;34.53
66857;BME280;53766;50.280;19.160;2023-06-04T05:58:28;98874.31;;;19.08;34.57
66857;BME280;53766;50.280;19.160;2023-06-04T06:00:56;98868.38;;;19.06;34.56
66857;BME280;53766;50.280;19.160;2023-06-04T06:03:23;98865.69;;;19.06;34.59
66857;BME280;53766;50.280;19.160;2023-06-04T06:05:51;98870.41;;;19.04;34.59
66857;BME280;53766;50.280;19.160;2023-06-04T06:08:18;98878.22;;;19.05;34.60
66857;BME280;53766;50.280;19.160;2023-06-04T06:10:46;98881.91;;;19.04;34.68
66857;BME280;53766;50.280;19.160;2023-06-04T06:13:14;98882.72;;;19.05;34.55
66857;BME280;53766;50.280;19.160;2023-06-04T06:15:42;98881.09;;;19.04;34.59
66857;BME280;53766;50.280;19.160;2023-06-04T06:18:10;98887.22;;;19.04;34.76
66857;BME280;53766;50.280;19.160;2023-06-04T06:20:38;98890.94;;;19.03;34.81
66857;BME280;53766;50.280;19.160;2023-06-04T06:23:06;98886.41;;;19.04;34.71
66857;BME280;53766;50.280;19.160;2023-06-04T06:25:34;98881.09;;;19.04;34.76
66857;BME280;53766;50.280;19.160;2023-06-04T06:28:01;98886.41;;;19.04;34.75
66857;BME280;53766;50.280;19.160;2023-06-04T06:30:29;98893.38;;;19.05;34.70
66857;BME280;53766;50.280;19.160;2023-06-04T06:32:57;98895.06;;;19.06;34.87
66857;BME280;53766;50.280;19.160;2023-06-04T06:35:24;98896.69;;;19.07;34.86
66857;BME280;53766;50.280;19.160;2023-06-04T06:37:52;98889.72;;;19.06;34.95
66857;BME280;53766;50.280;19.160;2023-06-04T06:40:20;98888.69;;;19.07;34.79
66857;BME280;53766;50.280;19.160;2023-06-04T06:42:49;98892.16;;;19.07;35.03
66857;BME280;53766;50.280;19.160;2023-06-04T06:45:18;98889.50;;;19.07;34.91
66857;BME280;53766;50.280;19.160;2023-06-04T06:47:46;98893.00;;;19.08;34.87
66857;BME280;53766;50.280;19.160;2023-06-04T06:50:14;98886.63;;;19.09;35.10
66857;BME280;53766;50.280;19.160;2023-06-04T06:52:41;98897.94;;;19.11;35.02
66857;BME280;53766;50.280;19.160;2023-06-04T06:55:09;98892.59;;;19.11;34.99
66857;BME280;53766;50.280;19.160;2023-06-04T06:57:37;98901.25;;;19.13;35.01
66857;BME280;53766;50.280;19.160;2023-06-04T07:00:05;98890.56;;;19.13;34.91
66857;BME280;53766;50.280;19.160;2023-06-04T07:02:33;98892.22;;;19.14;34.95
66857;BME280;53766;50.280;19.160;2023-06-04T07:05:01;98887.91;;;19.13;34.94
66857;BME280;53766;50.280;19.160;2023-06-04T07:07:28;98893.88;;;19.15;34.97
66857;BME280;53766;50.280;19.160;2023-06-04T07:09:56;98895.50;;;19.16;34.94
66857;BME280;53766;50.280;19.160;2023-06-04T07:12:23;98895.50;;;19.16;34.96
66857;BME280;53766;50.280;19.160;2023-06-04T07:14:51;98891.81;;;19.17;34.93
66857;BME280;53766;50.280;19.160;2023-06-04T07:17:19;98888.13;;;19.18;34.92
66857;BME280;53766;50.280;19.160;2023-06-04T07:19:46;98893.47;;;19.18;34.82
66857;BME280;53766;50.280;19.160;2023-06-04T07:22:14;98892.44;;;19.19;34.83
66857;BME280;53766;50.280;19.160;2023-06-04T07:24:43;98888.75;;;19.20;34.76
66857;BME280;53766;50.280;19.160;2023-06-04T07:27:14;98886.91;;;19.21;34.79
66857;BME280;53766;50.280;19.160;2023-06-04T07:29:45;98892.03;;;19.22;34.72
66857;BME280;53766;50.280;19.160;2023-06-04T07:32:12;98890.22;;;19.23;34.60
66857;BME280;53766;50.280;19.160;2023-06-04T07:34:40;98885.69;;;19.23;34.67
66857;BME280;53766;50.280;19.160;2023-06-04T07:37:07;98887.34;;;19.24;34.59
66857;BME280;53766;50.280;19.160;2023-06-04T07:39:38;98882.63;;;19.26;34.61
66857;BME280;53766;50.280;19.160;2023-06-04T07:42:06;98892.28;;;19.27;34.54
66857;BME280;53766;50.280;19.160;2023-06-04T07:44:36;98884.91;;;19.29;34.80
66857;BME280;53766;50.280;19.160;2023-06-04T07:47:04;98887.59;;;19.29;34.55
66857;BME280;53766;50.280;19.160;2023-06-04T07:49:32;98890.88;;;19.31;34.54
66857;BME280;53766;50.280;19.160;2023-06-04T07:52:00;98890.88;;;19.31;34.65
66857;BME280;53766;50.280;19.160;2023-06-04T07:54:27;98879.16;;;19.32;34.64
66857;BME280;53766;50.280;19.160;2023-06-04T07:56:55;98888.81;;;19.33;34.68
66857;BME280;53766;50.280;19.160;2023-06-04T07:59:23;98888.81;;;19.33;34.62
66857;BME280;53766;50.280;19.160;2023-06-04T08:01:51;98894.78;;;19.36;34.45
66857;BME280;53766;50.280;19.160;2023-06-04T08:04:20;98889.44;;;19.36;34.63
66857;BME280;53766;50.280;19.160;2023-06-04T08:06:48;98895.41;;;19.38;34.68
66857;BME280;53766;50.280;19.160;2023-06-04T08:09:18;98900.56;;;19.39;34.52
66857;BME280;53766;50.280;19.160;2023-06-04T08:11:45;98899.72;;;19.39;34.61
66857;BME280;53766;50.280;19.160;2023-06-04T08:14:13;98904.03;;;19.40;34.41
66857;BME280;53766;50.280;19.160;2023-06-04T08:16:41;98897.69;;;19.41;34.34
66857;BME280;53766;50.280;19.160;2023-06-04T08:19:09;98893.97;;;19.42;34.44
66857;BME280;53766;50.280;19.160;2023-06-04T08:21:36;98900.13;;;19.42;34.38
66857;BME280;53766;50.280;19.160;2023-06-04T08:24:04;98897.28;;;19.44;34.43
66857;BME280;53766;50.280;19.160;2023-06-04T08:26:32;98901.63;;;19.45;34.23
66857;BME280;53766;50.280;19.160;2023-06-04T08:29:02;98896.03;;;19.46;34.55
66857;BME280;53766;50.280;19.160;2023-06-04T08:31:30;98900.38;;;19.47;34.51
66857;BME280;53766;50.280;19.160;2023-06-04T08:33:58;98902.00;;;19.48;34.37
66857;BME280;53766;50.280;19.160;2023-06-04T08:36:27;98901.19;;;19.48;34.33
66857;BME280;53766;50.280;19.160;2023-06-04T08:38:55;98904.50;;;19.50;34.35
66857;BME280;53766;50.280;19.160;2023-06-04T08:41:29;98907.16;;;19.50;34.29
66857;BME280;53766;50.280;19.160;2023-06-04T08:43:57;98903.47;;;19.51;34.30
66857;BME280;53766;50.280;19.160;2023-06-04T08:46:28;98898.13;;;19.51;34.26
66857;BME280;53766;50.280;19.160;2023-06-04T08:49:00;98906.75;;;19.53;34.28
66857;BME280;53766;50.280;19.160;2023-06-04T08:51:33;98903.28;;;19.52;34.14
66857;BME280;53766;50.280;19.160;2023-06-04T08:54:01;98919.94;;;19.55;34.18
66857;BME280;53766;50.280;19.160;2023-06-04T08:56:29;98923.41;;;19.55;34.30
66857;BME280;53766;50.280;19.160;2023-06-04T08:59:01;98918.69;;;19.57;34.23
66857;BME280;53766;50.280;19.160;2023-06-04T09:01:30;98915.00;;;19.58;34.27
66857;BME280;53766;50.280;19.160;2023-06-04T09:04:04;98913.97;;;19.59;34.25
66857;BME280;53766;50.280;19.160;2023-06-04T09:06:33;98918.31;;;19.60;34.13
66857;BME280;53766;50.280;19.160;2023-06-04T09:09:03;98918.31;;;19.60;34.26
66857;BME280;53766;50.280;19.160;2023-06-04T09:11:37;98917.09;;;19.63;33.99
66857;BME280;53766;50.280;19.160;2023-06-04T09:14:08;98921.38;;;19.64;34.23
66857;BME280;53766;50.280;19.160;2023-06-04T09:16:52;98907.84;;;19.65;34.18
66857;BME280;53766;50.280;19.160;2023-06-04T09:19:21;98917.53;;;19.66;34.37
66857;BME280;53766;50.280;19.160;2023-06-04T09:21:49;98909.50;;;19.66;34.25
66857;BME280;53766;50.280;19.160;2023-06-04T09:24:18;98908.47;;;19.67;34.11
66857;BME280;53766;50.280;19.160;2023-06-04T09:26:46;98906.44;;;19.69;34.24
66857;BME280;53766;50.280;19.160;2023-06-04T09:29:14;98908.09;;;19.70;34.27
66857;BME280;53766;50.280;19.160;2023-06-04T09:31:46;98905.41;;;19.70;34.20
66857;BME280;53766;50.280;19.160;2023-06-04T09:34:15;98911.38;;;19.72;34.01
66857;BME280;53766;50.280;19.160;2023-06-04T09:36:42;98903.97;;;19.75;34.18
66857;BME280;53766;50.280;19.160;2023-06-04T09:39:16;98905.84;;;19.74;34.18
66857;BME280;53766;50.280;19.160;2023-06-04T09:41:44;98907.28;;;19.77;34.03
66857;BME280;53766;50.280;19.160;2023-06-04T09:44:12;98905.66;;;19.76;34.21
66857;BME280;53766;50.280;19.160;2023-06-04T09:46:39;98903.59;;;19.78;34.19
66857;BME280;53766;50.280;19.160;2023-06-04T09:49:07;98892.91;;;19.78;34.04
66857;BME280;53766;50.280;19.160;2023-06-04T09:51:34;98890.00;;;19.79;34.28
66857;BME280;53766;50.280;19.160;2023-06-04T09:54:03;98890.00;;;19.79;34.17
66857;BME280;53766;50.280;19.160;2023-06-04T09:56:39;98888.19;;;19.80;34.17
66857;BME280;53766;50.280;19.160;2023-06-04T09:59:10;98887.97;;;19.81;33.95
66857;BME280;53766;50.280;19.160;2023-06-04T10:01:43;98889.63;;;19.82;34.11
66857;BME280;53766;50.280;19.160;2023-06-04T10:04:13;98879.75;;;19.83;34.12
66857;BME280;53766;50.280;19.160;2023-06-04T10:06:40;98879.56;;;19.84;34.20
66857;BME280;53766;50.280;19.160;2023-06-04T10:09:09;98883.03;;;19.85;34.05
66857;BME280;53766;50.280;19.160;2023-06-04T10:11:57;98884.50;;;19.87;34.04
66857;BME280;53766;50.280;19.160;2023-06-04T10:14:45;98878.13;;;19.88;34.07
66857;BME280;53766;50.280;19.160;2023-06-04T10:17:15;98878.94;;;19.89;34.12
66857;BME280;53766;50.280;19.160;2023-06-04T10:19:44;98880.59;;;19.90;34.09
66857;BME280;53766;50.280;19.160;2023-06-04T10:22:12;98876.91;;;19.91;34.15
66857;BME280;53766;50.280;19.160;2023-06-04T10:24:40;98872.19;;;19.93;34.13
66857;BME280;53766;50.280;19.160;2023-06-04T10:27:07;98880.19;;;19.93;34.07
66857;BME280;53766;50.280;19.160;2023-06-04T10:29:37;98876.47;;;19.94;34.10
66857;BME280;53766;50.280;19.160;2023-06-04T10:32:05;98885.13;;;19.96;33.95
66857;BME280;53766;50.280;19.160;2023-06-04T10:34:34;98881.44;;;19.97;34.03
66857;BME280;53766;50.280;19.160;2023-06-04T10:37:03;98881.22;;;19.99;34.23
66857;BME280;53766;50.280;19.160;2023-06-04T10:39:32;98879.38;;;19.99;34.04
66857;BME280;53766;50.280;19.160;2023-06-04T10:42:03;98877.34;;;20.01;34.20
66857;BME280;53766;50.280;19.160;2023-06-04T10:44:44;98868.47;;;20.01;34.17
66857;BME280;53766;50.280;19.160;2023-06-04T10:49:54;98875.25;;;20.03;34.14
66857;BME280;53766;50.280;19.160;2023-06-04T10:52:21;98876.09;;;20.04;33.98
66857;BME280;53766;50.280;19.160;2023-06-04T10:54:49;98877.94;;;20.03;33.88
66857;BME280;53766;50.280;19.160;2023-06-04T10:57:20;98875.25;;;20.03;33.86
66857;BME280;53766;50.280;19.160;2023-06-04T10:59:55;98869.50;;;20.06;33.88
66857;BME280;53766;50.280;19.160;2023-06-04T11:02:23;98871.16;;;20.07;33.93
66857;BME280;53766;50.280;19.160;2023-06-04T11:05:05;98872.00;;;20.08;33.96
66857;BME280;53766;50.280;19.160;2023-06-04T11:07:44;98872.00;;;20.08;33.64
66857;BME280;53766;50.280;19.160;2023-06-04T11:10:13;98868.28;;;20.09;33.78
66857;BME280;53766;50.280;19.160;2023-06-04T11:12:49;98873.44;;;20.10;33.71
66857;BME280;53766;50.280;19.160;2023-06-04T11:15:20;98867.03;;;20.11;33.47
66857;BME280;53766;50.280;19.160;2023-06-04T11:17:51;98875.88;;;20.12;33.70
66857;BME280;53766;50.280;19.160;2023-06-04T11:20:21;98866.03;;;20.12;33.42
66857;BME280;53766;50.280;19.160;2023-06-04T11:22:55;98874.88;;;20.13;33.67
66857;BME280;53766;50.280;19.160;2023-06-04T11:25:26;98869.31;;;20.14;33.42
66857;BME280;53766;50.280;19.160;2023-06-04T11:27:55;98867.47;;;20.15;33.29
66857;BME280;53766;50.280;19.160;2023-06-04T11:30:24;98862.94;;;20.16;33.49
66857;BME280;53766;50.280;19.160;2023-06-04T11:33:05;98877.75;;;20.18;33.43
66857;BME280;53766;50.280;19.160;2023-06-04T11:35:43;98872.38;;;20.18;33.36
66857;BME280;53766;50.280;19.160;2023-06-04T11:38:11;98869.53;;;20.20;33.22
66857;BME280;53766;50.280;19.160;2023-06-04T11:40:39;98854.50;;;20.19;33.35
66857;BME280;53766;50.280;19.160;2023-06-04T11:43:10;98868.47;;;20.21;33.16
66857;BME280;53766;50.280;19.160;2023-06-04T11:45:38;98872.00;;;20.21;33.26
66857;BME280;53766;50.280;19.160;2023-06-04T11:48:05;98855.72;;;20.23;33.19
66857;BME280;53766;50.280;19.160;2023-06-04T11:50:33;98854.72;;;20.24;33.05
66857;BME280;53766;50.280;19.160;2023-06-04T11:53:00;98855.34;;;20.26;33.03
66857;BME280;53766;50.280;19.160;2023-06-04T11:55:29;98858.00;;;20.26;32.85
66857;BME280;53766;50.280;19.160;2023-06-04T11:57:56;98848.94;;;20.27;33.06
66857;BME280;53766;50.280;19.160;2023-06-04T12:00:24;98860.47;;;20.27;33.09
66857;BME280;53766;50.280;19.160;2023-06-04T12:02:54;98850.59;;;20.28;33.21
66857;BME280;53766;50.280;19.160;2023-06-04T12:05:27;98853.03;;;20.29;33.35
66857;BME280;53766;50.280;19.160;2023-06-04T12:08:06;98859.25;;;20.30;32.98
66857;BME280;53766;50.280;19.160;2023-06-04T12:10:39;98854.50;;;20.32;33.25
66857;BME280;53766;50.280;19.160;2023-06-04T12:13:08;98846.50;;;20.32;32.99
66857;BME280;53766;50.280;19.160;2023-06-04T12:15:36;98848.13;;;20.33;33.08
66857;BME280;53766;50.280;19.160;2023-06-04T12:18:03;98844.44;;;20.34;33.36
66857;BME280;53766;50.280;19.160;2023-06-04T12:20:40;98846.06;;;20.35;33.17
66857;BME280;53766;50.280;19.160;2023-06-04T12:23:19;98853.06;;;20.36;33.15
66857;BME280;53766;50.280;19.160;2023-06-04T12:25:50;98853.06;;;20.36;33.25
66857;BME280;53766;50.280;19.160;2023-06-04T12:28:18;98851.22;;;20.37;33.32
66857;BME280;53766;50.280;19.160;2023-06-04T12:30:45;98844.81;;;20.38;33.28
66857;BME280;53766;50.280;19.160;2023-06-04T12:33:13;98848.53;;;20.37;33.50
66857;BME280;53766;50.280;19.160;2023-06-04T12:35:41;98853.66;;;20.38;33.34
66857;BME280;53766;50.280;19.160;2023-06-04T12:38:08;98843.56;;;20.40;33.40
66857;BME280;53766;50.280;19.160;2023-06-04T12:40:36;98847.91;;;20.41;33.32
66857;BME280;53766;50.280;19.160;2023-06-04T12:43:05;98851.22;;;20.43;33.41
66857;BME280;53766;50.280;19.160;2023-06-04T12:45:33;98853.88;;;20.43;33.46
66857;BME280;53766;50.280;19.160;2023-06-04T12:48:01;98854.50;;;20.45;33.56
66857;BME280;53766;50.280;19.160;2023-06-04T12:50:29;98846.47;;;20.45;33.60
66857;BME280;53766;50.280;19.160;2023-06-04T12:52:56;98842.75;;;20.46;33.48
66857;BME280;53766;50.280;19.160;2023-06-04T12:55:24;98856.13;;;20.46;33.55
66857;BME280;53766;50.280;19.160;2023-06-04T12:57:54;98851.81;;;20.45;33.51
66857;BME280;53766;50.280;19.160;2023-06-04T13:00:22;98852.22;;;20.42;33.66
66857;BME280;53766;50.280;19.160;2023-06-04T13:02:49;98851.41;;;20.42;33.52